Richmond Municipal (RID)

 

Airport Diagram
No Airport Diagram Available
Current Weather/Forecast (IFR Conditions)
METAR KRID 270335Z AUTO 36006KT 4SM -DZ BKN006 OVC012 05/05 A3028 RMK AO2
TAF

Airport Information

All Charts
General
Chart Name View
TAKEOFF MINIMUMS
TAKEOFF MINIMUMS

Approaches
Chart Name Download
RNAV (GPS) RWY 06
RNAV (GPS) RWY 24
RNAV (GPS) RWY 33
RNAV (GPS) RWY 06
RNAV (GPS) RWY 24
RNAV (GPS) RWY 33


Airport Statistics
Departures Arrivals Local
All Collected Stats since June 2016: 7 13 0
2020 Stats: 2 3 0
October Stats: 0 0 0

Inbound Traffic (Arrivals) - 0

No inbound traffic.


Outbound Traffic (Departures) - 0

No outbound traffic.


Local Traffic (Pattern) - 0

No local traffic.